Alexandria International Airport
KAEX : now visible

Airfield :











YOU CAN JOIN US ON...

 
LOGIN :

Register | Disclaimer

   EN    FR    IT 

 









Legend :    VFR   Marginal VFR   IFR   Intensive IFR   Very Intensive IFR
Visi :
Ceiling :
>= 8 km
>= 3000ft
5 to 8 km
1000 to 3000 ft
1500m to 5 km
500 to 1000 ft
800 to 1500m
200 to 500 ft
< 800m
< 200 ft
Symbols :   Thunderstorms  Fog  Heavy snow  Heavy precipitations  Wind > 20 kt






- Airport Elevation : 89 ft
- IATA code : AEX


KAEX - Alexandria International

CURRENT METAR :
  • 181122Z 31005KT 2SM -RA BR BKN004 OVC008 17/17 A3015 RMK AO2 P0001 T01670167

EXPIRED METARs :
  • 181053Z 00000KT 2SM -RA BR OVC006 17/17 A3013 RMK AO2 RAB16E26B46 CIG 003V012 SLP206 P0003 T01670167
  • 181017Z 00000KT 1 1/2SM -RA BR OVC004 17/16 A3013 RMK AO2 RAB16 P0000 T01670161
  • 181001Z 00000KT 2 1/2SM BR OVC005 17/16 A3013 RMK AO2 T01670161
  • 180953Z 30003KT 3SM BR OVC005 17/16 A3013 RMK AO2 SLP207 T01670161
  • 180853Z 14005KT 8SM OVC007 17/16 A3013 RMK AO2 SLP205 T01720161 56012

TAF KAEX
Valid from the 18 at 12:00 until the 19 at 12:00 UTC


181120Z 1812/1912 15005KT 3SM -RA OVC006
TEMPO 1812/1816 2SM RA BR OVC004
FM181600 21006KT P6SM -SHRA OVC007
FM181800 28007KT P6SM -SHRA SCT025 OVC035
FM182000 32009KT P6SM -SHRA SCT025 OVC035
FM190300 35011KT P6SM OVC040



MET'MAP, your aeronautical weather chart ! - Copyright ORBIFLY December 2007 - Disclaimer

ORBIFLY MET'MAP TEAM :

Programming & Development : Alexandra Zaïnal
Concept & original design : Baudouin d'Aumeries
Assistance for programming : Marc-Olivier Méhu
Technical & hardware support : Manuel Goepfert

Contact : metmap@orbifly.com




SOURCES & CREDITS :

   NOAA       Earth
Advisory